createdAt,value
2018-06-01T00:00:27.892Z,10.17
2018-06-01T00:05:30.410Z,10.23
2018-06-01T00:10:32.910Z,9.97
2018-06-01T00:15:35.414Z,10.23
2018-06-01T00:20:37.955Z,9.80
2018-06-01T00:25:41.045Z,10.87
2018-06-01T00:30:44.046Z,10.17
2018-06-01T00:35:46.555Z,11.10
2018-06-01T00:40:49.091Z,11.30
2018-06-01T00:45:51.613Z,9.80
2018-06-01T00:50:54.126Z,10.50
2018-06-01T00:55:56.632Z,9.83
2018-06-01T01:00:59.143Z,10.43
2018-06-01T01:06:01.656Z,9.83
2018-06-01T01:11:04.180Z,10.53
2018-06-01T01:16:06.673Z,11.47
2018-06-01T01:21:09.197Z,10.70
2018-06-01T01:26:11.709Z,10.93
2018-06-01T01:31:14.234Z,12.03
2018-06-01T01:36:16.721Z,11.07
2018-06-01T01:41:19.244Z,11.13
2018-06-01T01:46:21.781Z,12.13
2018-06-01T01:51:24.260Z,11.70
2018-06-01T01:56:26.744Z,11.77
2018-06-01T02:01:29.261Z,11.30
2018-06-01T02:06:31.875Z,10.70
2018-06-01T02:11:34.379Z,11.13
2018-06-01T02:16:37.514Z,11.10
2018-06-01T02:21:39.982Z,9.83
2018-06-01T02:26:43.922Z,10.77
2018-06-01T02:31:46.535Z,11.30
2018-06-01T02:36:49.056Z,9.90
2018-06-01T02:41:51.588Z,9.63
2018-06-01T02:46:54.067Z,10.83
2018-06-01T02:51:56.590Z,9.77
2018-06-01T02:56:59.125Z,10.60
2018-06-01T03:02:01.635Z,10.67
2018-06-01T03:07:11.253Z,10.80
2018-06-01T03:12:13.749Z,10.70
2018-06-01T03:17:16.253Z,11.07
2018-06-01T03:22:18.776Z,11.63
2018-06-01T03:27:21.339Z,10.17
2018-06-01T03:32:23.877Z,11.20
2018-06-01T03:37:26.406Z,10.70
2018-06-01T03:42:28.930Z,11.27
2018-06-01T03:47:31.477Z,10.50
2018-06-01T03:52:33.973Z,11.20
2018-06-01T03:57:36.485Z,10.27
2018-06-01T04:02:38.993Z,9.70
2018-06-01T04:07:41.495Z,9.63
2018-06-01T04:12:43.995Z,9.40
2018-06-01T04:17:47.588Z,9.30
2018-06-01T04:22:50.352Z,9.80
2018-06-01T04:27:52.911Z,9.03
2018-06-01T04:32:55.393Z,9.43
2018-06-01T04:37:57.878Z,8.10
2018-06-01T04:43:01.204Z,8.53
2018-06-01T04:48:03.692Z,8.47
2018-06-01T04:53:06.236Z,8.53
2018-06-01T04:58:08.725Z,8.40
2018-06-01T05:03:11.219Z,9.43
2018-06-01T05:08:13.732Z,8.77
2018-06-01T05:13:17.000Z,9.05
2018-06-01T05:18:19.525Z,9.73
2018-06-01T05:23:22.051Z,9.40
2018-06-01T05:28:24.621Z,9.30
2018-06-01T05:33:27.113Z,9.30
2018-06-01T05:38:29.608Z,9.13
2018-06-01T05:43:32.111Z,9.82
2018-06-01T05:48:34.606Z,10.02
2018-06-01T05:53:37.114Z,10.32
2018-06-01T05:58:39.614Z,10.38
2018-06-01T06:03:42.556Z,10.52
2018-06-01T06:08:45.057Z,10.68
2018-06-01T06:13:47.628Z,10.32
2018-06-01T06:18:50.172Z,10.75
2018-06-01T06:23:52.695Z,10.70
2018-06-01T06:28:55.171Z,11.12
2018-06-01T06:33:58.009Z,11.60
2018-06-01T06:39:00.568Z,9.80
2018-06-01T06:44:03.060Z,10.43
2018-06-01T06:49:05.583Z,11.10
2018-06-01T06:54:08.078Z,10.75
2018-06-01T06:59:10.558Z,10.25
2018-06-01T07:04:13.878Z,11.70
2018-06-01T07:09:16.735Z,10.95
2018-06-01T07:14:19.317Z,10.68
2018-06-01T07:19:21.864Z,11.15
2018-06-01T07:24:24.353Z,11.65
2018-06-01T07:29:26.840Z,10.88
2018-06-01T07:34:29.332Z,11.23
2018-06-01T07:39:31.861Z,10.48
2018-06-01T07:44:34.443Z,9.20
2018-06-01T07:49:36.960Z,9.73
2018-06-01T07:54:39.459Z,11.20
2018-06-01T07:59:41.935Z,9.63
2018-06-01T08:04:44.455Z,8.03
2018-06-01T08:09:47.037Z,9.30
2018-06-01T08:14:49.559Z,9.17
2018-06-01T08:19:52.056Z,9.00
2018-06-01T08:24:54.539Z,7.60
2018-06-01T08:29:57.019Z,7.07
2018-06-01T08:34:59.532Z,7.43
2018-06-01T08:40:02.031Z,7.40
2018-06-01T08:45:04.493Z,7.20
2018-06-01T08:50:06.995Z,7.63
2018-06-01T08:55:09.504Z,8.17
2018-06-01T09:00:11.986Z,7.23
2018-06-01T09:05:14.509Z,7.40
2018-06-01T09:10:17.151Z,7.00
2018-06-01T09:15:19.522Z,7.53
2018-06-01T09:20:22.037Z,7.73
2018-06-01T09:25:24.601Z,8.90
2018-06-01T09:30:27.089Z,8.40
2018-06-01T09:35:29.589Z,8.30
2018-06-01T09:40:32.101Z,10.37
2018-06-01T09:45:34.667Z,9.60
2018-06-01T09:50:37.165Z,10.77
2018-06-01T09:55:39.671Z,10.30
2018-06-01T10:00:42.198Z,12.07
2018-06-01T10:05:44.735Z,10.97
2018-06-01T10:10:47.325Z,10.87
2018-06-01T10:15:49.830Z,8.97
2018-06-01T10:20:52.350Z,8.70
2018-06-01T10:25:54.879Z,8.80
2018-06-01T10:30:57.366Z,8.20
2018-06-01T10:35:59.877Z,8.07
2018-06-01T10:41:02.375Z,8.52
2018-06-01T10:46:04.882Z,6.68
2018-06-01T10:51:07.649Z,7.57
2018-06-01T10:56:10.188Z,6.35
2018-06-01T11:01:12.991Z,6.65
2018-06-01T11:06:15.532Z,6.37
2018-06-01T11:11:18.046Z,6.78
2018-06-01T11:16:21.090Z,6.93
2018-06-01T11:21:25.220Z,6.65
2018-06-01T11:26:28.107Z,6.20
2018-06-01T11:31:30.942Z,5.80
2018-06-01T11:36:33.816Z,7.18
2018-06-01T11:41:36.288Z,6.20
2018-06-01T11:46:38.766Z,8.18
2018-06-01T11:51:41.273Z,9.32
2018-06-01T11:56:43.840Z,8.95
2018-06-01T12:01:46.651Z,8.80
2018-06-01T12:06:49.158Z,9.25
2018-06-01T12:11:51.688Z,8.98
2018-06-01T12:16:54.227Z,9.48
2018-06-01T12:21:56.712Z,8.60
2018-06-01T12:26:59.264Z,8.70
2018-06-01T12:32:01.769Z,7.60
2018-06-01T12:37:04.292Z,7.15
2018-06-01T12:42:06.795Z,7.28
2018-06-01T12:47:09.273Z,7.03
2018-06-01T12:52:11.768Z,7.72
2018-06-01T12:57:14.288Z,7.10
2018-06-01T13:02:16.828Z,7.57
2018-06-01T13:07:29.346Z,7.43
2018-06-01T13:12:35.153Z,7.43
2018-06-01T13:17:37.843Z,7.60
2018-06-01T13:22:40.332Z,8.10
2018-06-01T13:27:49.741Z,8.25
2018-06-01T13:32:52.411Z,8.35
2018-06-01T13:37:54.906Z,6.60
2018-06-01T13:42:57.410Z,7.32
2018-06-01T13:47:59.937Z,7.45
2018-06-01T13:53:02.413Z,7.50
2018-06-01T13:58:04.910Z,7.93
2018-06-01T14:03:07.453Z,7.07
2018-06-01T14:08:09.980Z,7.40
2018-06-01T14:13:12.523Z,7.15
2018-06-01T14:18:15.011Z,7.40
2018-06-01T14:23:17.563Z,8.00
2018-06-01T14:28:20.092Z,7.37
2018-06-01T14:33:22.630Z,6.87
2018-06-01T14:38:25.114Z,7.70
2018-06-01T14:43:27.623Z,7.05
2018-06-01T14:48:30.089Z,8.20
2018-06-01T14:53:32.571Z,7.55
2018-06-01T14:58:35.100Z,7.53
2018-06-01T15:03:37.616Z,7.62
2018-06-01T15:08:40.086Z,7.62
2018-06-01T15:13:42.605Z,8.48
2018-06-01T15:18:45.113Z,8.63
2018-06-01T15:23:47.792Z,7.25
2018-06-01T15:28:50.276Z,8.75
2018-06-01T15:33:52.881Z,8.68
2018-06-01T15:38:55.323Z,9.52
2018-06-01T15:43:58.279Z,9.80
2018-06-01T15:49:00.800Z,9.27
2018-06-01T15:54:03.250Z,8.82
2018-06-01T15:59:05.755Z,9.13
2018-06-01T16:04:08.336Z,8.30
2018-06-01T16:09:10.869Z,8.88
2018-06-01T16:14:14.511Z,9.27
2018-06-01T16:19:17.111Z,8.85
2018-06-01T16:24:19.643Z,9.30
2018-06-01T16:29:22.232Z,7.78
2018-06-01T16:34:24.725Z,7.90
2018-06-01T16:39:27.196Z,8.32
2018-06-01T16:44:29.700Z,8.20
2018-06-01T16:49:32.198Z,7.55
2018-06-01T16:54:34.749Z,8.50
2018-06-01T16:59:37.216Z,8.30
2018-06-01T17:04:39.716Z,8.70
2018-06-01T17:09:42.211Z,7.25
2018-06-01T17:14:44.940Z,5.40
2018-06-01T17:19:47.546Z,6.35
2018-06-01T17:24:50.037Z,7.33
2018-06-01T17:29:52.590Z,8.77
2018-06-01T17:34:55.453Z,8.23
2018-06-01T17:39:58.566Z,9.33
2018-06-01T17:45:01.089Z,8.77
2018-06-01T17:50:03.604Z,10.23
2018-06-01T17:55:06.319Z,11.03
2018-06-01T18:00:11.209Z,14.77
2018-06-01T18:05:16.263Z,16.20
2018-06-01T18:10:19.611Z,16.50
2018-06-01T18:15:22.526Z,19.37
2018-06-01T18:20:26.092Z,11.73
2018-06-01T18:25:29.733Z,19.00
2018-06-01T18:30:32.237Z,17.70
2018-06-01T18:35:34.739Z,18.20
2018-06-01T18:40:37.251Z,20.07
2018-06-01T18:45:39.715Z,22.63
2018-06-01T18:50:42.239Z,25.17
2018-06-01T18:55:44.856Z,25.47
2018-06-01T19:00:47.610Z,23.07
2018-06-01T19:05:50.487Z,19.80
2018-06-01T19:10:54.123Z,21.27
2018-06-01T19:15:57.513Z,26.90
2018-06-01T19:20:59.984Z,24.07
2018-06-01T19:26:04.254Z,22.90
2018-06-01T19:31:08.961Z,20.70
2018-06-01T19:36:12.103Z,21.03
2018-06-01T19:41:16.773Z,20.80
2018-06-01T19:46:21.386Z,29.40
2018-06-01T19:51:25.565Z,29.33
2018-06-01T19:56:31.232Z,31.80
2018-06-01T20:01:34.944Z,31.97
2018-06-01T20:06:37.888Z,34.33
2018-06-01T20:11:41.105Z,30.87
2018-06-01T20:16:46.358Z,29.60
2018-06-01T20:21:48.866Z,31.43
2018-06-01T20:27:03.266Z,33.93
2018-06-01T20:32:07.718Z,33.93
2018-06-01T20:37:10.388Z,33.90
2018-06-01T20:42:14.942Z,36.53
2018-06-01T20:47:18.330Z,41.63
2018-06-01T20:52:22.272Z,47.20
2018-06-01T20:57:25.945Z,43.97
2018-06-01T21:02:31.813Z,38.30
2018-06-01T21:07:36.926Z,34.87
2018-06-01T21:12:40.691Z,31.33
2018-06-01T21:17:43.405Z,31.33
2018-06-01T21:22:47.444Z,30.23
2018-06-01T21:27:50.061Z,31.10
2018-06-01T21:32:52.634Z,37.47
2018-06-01T21:37:55.204Z,36.53
2018-06-01T21:42:58.104Z,34.73
2018-06-01T21:48:00.717Z,31.63
2018-06-01T21:53:03.562Z,36.13
2018-06-01T21:58:06.201Z,35.53
2018-06-01T22:03:14.288Z,35.33
2018-06-01T22:08:21.055Z,36.67
2018-06-01T22:13:24.302Z,35.07
2018-06-01T22:18:27.145Z,33.60
2018-06-01T22:23:29.721Z,33.33
2018-06-01T22:28:32.265Z,36.00
2018-06-01T22:33:34.753Z,34.97
2018-06-01T22:38:37.243Z,37.23
2018-06-01T22:43:39.732Z,37.43
2018-06-01T22:48:42.255Z,38.70
2018-06-01T22:53:44.797Z,38.87
2018-06-01T22:58:47.349Z,41.43
2018-06-01T23:03:49.943Z,48.73
2018-06-01T23:08:52.525Z,45.80
2018-06-01T23:13:54.991Z,47.40
2018-06-01T23:18:57.503Z,48.67
2018-06-01T23:23:59.979Z,48.43
2018-06-01T23:29:02.494Z,47.67
2018-06-01T23:34:05.007Z,46.40
2018-06-01T23:39:07.534Z,50.30
2018-06-01T23:44:10.024Z,47.90
2018-06-01T23:49:12.644Z,51.53
2018-06-01T23:54:15.188Z,51.67
2018-06-01T23:59:17.770Z,46.80
